Time;durP1;ratioP1;P1;durP2;ratioP2;P2;SDS_P1;SDS_P2;PMS_P1;PMS_P2;Temp;Humidity;BMP_temperature;BMP_pressure;BME280_temperature;BME280_humidity;BME280_pressure;Samples;Min_cycle;Max_cycle;Signal;HPM_P1;HPM_P2
2021/06/18 06:42:38;;;;;;;8.70;3.50;;;;;;;;;;7151611;27;20613;-83
2021/06/18 06:45:58;;;;;;;8.43;4.45;;;;;;;;;;7134587;27;20045;-84
2021/06/18 06:49:19;;;;;;;10.10;5.50;;;;;;;;;;7135074;27;20039;-84
2021/06/18 06:52:39;;;;;;;7.55;4.95;;;;;;;;;;7143730;27;20070;-84
2021/06/18 06:55:59;;;;;;;15.13;6.38;;;;;;;;;;7128901;27;20125;-83
2021/06/18 06:59:20;;;;;;;17.00;5.57;;;;;;;;;;7133147;27;20102;-83
2021/06/18 07:02:40;;;;;;;24.73;4.70;;;;;;;;;;7145867;27;20068;-86
2021/06/18 07:06:01;;;;;;;18.67;4.90;;;;;;;;;;7136981;27;20133;-86
2021/06/18 07:09:24;;;;;;;8.60;4.45;;;;;;;;;;7160085;27;20056;-88
2021/06/18 07:12:44;;;;;;;7.07;4.32;;;;;;;;;;7141088;27;20058;-86
2021/06/18 07:16:05;;;;;;;10.75;4.35;;;;;;;;;;7159452;27;20086;-87
2021/06/18 07:19:25;;;;;;;8.30;4.20;;;;;;;;;;7164384;27;20042;-87
2021/06/18 07:22:46;;;;;;;10.38;4.43;;;;;;;;;;7140640;27;20082;-85
2021/06/18 07:26:06;;;;;;;8.63;4.28;;;;;;;;;;7142888;27;20399;-87
2021/06/18 07:29:27;;;;;;;7.72;4.22;;;;;;;;;;7094945;27;20486;-85
2021/06/18 07:32:47;;;;;;;4.90;3.88;;;;;;;;;;7134225;27;20070;-85
2021/06/18 07:36:08;;;;;;;13.55;4.72;;;;;;;;;;7133231;27;20069;-77
2021/06/18 07:39:28;;;;;;;7.13;4.32;;;;;;;;;;7132147;27;20095;-76
2021/06/18 07:42:49;;;;;;;6.95;3.83;;;;;;;;;;7132008;27;20502;-75
2021/06/18 07:46:10;;;;;;;7.55;4.22;;;;;;;;;;7098290;27;20103;-76
2021/06/18 07:49:30;;;;;;;12.55;4.20;;;;;;;;;;7131893;27;20074;-77
2021/06/18 07:52:51;;;;;;;14.55;4.15;;;;;;;;;;7085990;27;20058;-77
2021/06/18 07:56:12;;;;;;;5.03;3.78;;;;;;;;;;7119549;27;20095;-77
2021/06/18 07:59:32;;;;;;;10.05;3.75;;;;;;;;;;7111321;27;20047;-76
2021/06/18 08:02:52;;;;;;;7.30;3.70;;;;;;;;;;7125275;27;20467;-76
2021/06/18 08:06:13;;;;;;;7.72;4.22;;;;;;;;;;7129437;27;20472;-76
2021/06/18 08:09:33;;;;;;;9.05;4.30;;;;;;;;;;7139007;27;20087;-75
2021/06/18 08:12:54;;;;;;;8.18;4.15;;;;;;;;;;7126612;27;20038;-76
2021/06/18 08:16:15;;;;;;;7.88;3.97;;;;;;;;;;7112512;27;20051;-76
2021/06/18 08:19:35;;;;;;;4.40;3.67;;;;;;;;;;7112404;27;20157;-76
2021/06/18 08:22:57;;;;;;;5.90;3.78;;;;;;;;;;7112407;27;20510;-76
2021/06/18 08:26:19;;;;;;;7.43;4.47;;;;;;;;;;7136459;27;20046;-75
2021/06/18 08:29:40;;;;;;;6.50;3.55;;;;;;;;;;7121123;27;20043;-75
2021/06/18 08:33:00;;;;;;;4.75;3.35;;;;;;;;;;7135125;27;20046;-76
2021/06/18 08:36:21;;;;;;;6.95;3.45;;;;;;;;;;7116791;27;20577;-77
2021/06/18 08:39:42;;;;;;;10.82;3.13;;;;;;;;;;7111819;27;20057;-76
2021/06/18 08:43:04;;;;;;;13.50;4.32;;;;;;;;;;7111236;27;20042;-76
2021/06/18 08:46:25;;;;;;;9.70;4.20;;;;;;;;;;7111874;27;20070;-74
2021/06/18 08:49:45;;;;;;;6.18;3.28;;;;;;;;;;7078021;27;20050;-75
2021/06/18 08:53:10;;;;;;;7.65;3.25;;;;;;;;;;7111545;27;20537;-75
2021/06/18 08:56:31;;;;;;;4.28;3.25;;;;;;;;;;7078729;27;20044;-75
2021/06/18 08:59:51;;;;;;;6.07;3.15;;;;;;;;;;7079355;27;20054;-77
2021/06/18 09:03:35;;;;;;;5.55;3.22;;;;;;;;;;7136707;27;20069;-77
2021/06/18 09:07:00;;;;;;;12.25;3.58;;;;;;;;;;7126739;27;20049;-76
2021/06/18 09:10:22;;;;;;;4.88;3.00;;;;;;;;;;7121835;27;20034;-76
2021/06/18 09:13:43;;;;;;;9.07;3.75;;;;;;;;;;7134908;27;20039;-76
2021/06/18 09:17:11;;;;;;;5.85;3.85;;;;;;;;;;7125771;27;20085;-75
2021/06/18 09:20:31;;;;;;;5.05;3.15;;;;;;;;;;7110898;27;20050;-76
2021/06/18 09:23:54;;;;;;;4.70;3.20;;;;;;;;;;7129094;27;20034;-75
2021/06/18 09:27:15;;;;;;;5.20;3.40;;;;;;;;;;7136414;27;20069;-76
2021/06/18 09:30:36;;;;;;;8.35;3.42;;;;;;;;;;7125313;27;20050;-75
2021/06/18 09:33:57;;;;;;;3.80;3.17;;;;;;;;;;7110104;27;20133;-76
2021/06/18 09:37:22;;;;;;;4.18;3.08;;;;;;;;;;7088398;27;20047;-76
2021/06/18 09:40:42;;;;;;;15.70;3.10;;;;;;;;;;7074594;27;20065;-75
2021/06/18 09:44:12;;;;;;;12.00;3.42;;;;;;;;;;7110273;27;20126;-74
2021/06/18 09:47:32;;;;;;;12.88;3.70;;;;;;;;;;7122481;27;20483;-76
2021/06/18 09:51:00;;;;;;;11.20;3.53;;;;;;;;;;7111282;27;20053;-75
2021/06/18 09:54:30;;;;;;;6.32;3.13;;;;;;;;;;7117165;27;20452;-75
2021/06/18 09:57:54;;;;;;;12.13;3.35;;;;;;;;;;7109599;27;20042;-75
2021/06/18 10:01:16;;;;;;;7.97;3.30;;;;;;;;;;7112796;27;20187;-76
2021/06/18 10:04:38;;;;;;;3.80;2.92;;;;;;;;;;7137618;27;20057;-76
2021/06/18 10:07:59;;;;;;;4.30;3.05;;;;;;;;;;7122915;27;20046;-77
2021/06/18 10:11:19;;;;;;;4.18;3.13;;;;;;;;;;7087906;27;20065;-76
2021/06/18 10:14:42;;;;;;;6.55;3.55;;;;;;;;;;7135042;27;20041;-75
2021/06/18 10:18:02;;;;;;;4.50;3.10;;;;;;;;;;7123419;27;20042;-76
2021/06/18 10:21:24;;;;;;;9.55;3.10;;;;;;;;;;7092984;27;20083;-75
2021/06/18 10:24:50;;;;;;;5.07;3.17;;;;;;;;;;7076008;27;20042;-74
2021/06/18 10:28:18;;;;;;;10.80;3.95;;;;;;;;;;7087317;27;20050;-76
2021/06/18 10:31:38;;;;;;;5.23;3.57;;;;;;;;;;7111572;27;20053;-76
2021/06/18 10:35:02;;;;;;;10.40;4.78;;;;;;;;;;7108842;27;20047;-77
2021/06/18 10:38:36;;;;;;;10.73;4.53;;;;;;;;;;7104990;27;20046;-77
2021/06/18 10:41:59;;;;;;;9.00;3.80;;;;;;;;;;7106969;27;20137;-76
2021/06/18 10:45:20;;;;;;;6.40;3.70;;;;;;;;;;7107646;27;20050;-77
2021/06/18 10:48:47;;;;;;;7.78;3.40;;;;;;;;;;7108141;27;20047;-77
2021/06/18 10:52:20;;;;;;;7.53;3.65;;;;;;;;;;7104633;27;20043;-76
2021/06/18 10:55:48;;;;;;;4.15;3.35;;;;;;;;;;7108241;27;20464;-76
2021/06/18 10:59:09;;;;;;;3.95;3.20;;;;;;;;;;7108634;27;20053;-76
2021/06/18 11:02:31;;;;;;;6.60;3.50;;;;;;;;;;7108063;27;20039;-78
2021/06/18 11:05:52;;;;;;;7.75;3.47;;;;;;;;;;7117709;27;20047;-78
2021/06/18 11:09:12;;;;;;;8.02;3.67;;;;;;;;;;7113487;27;20077;-78
2021/06/18 11:12:37;;;;;;;7.05;3.42;;;;;;;;;;7122814;27;20082;-78
2021/06/18 11:15:58;;;;;;;5.53;3.58;;;;;;;;;;7108068;27;20125;-78
2021/06/18 11:19:26;;;;;;;11.30;3.72;;;;;;;;;;7074795;27;20380;-78
2021/06/18 11:23:05;;;;;;;;;;;;;;;;;;7108447;27;20543;-78
2021/06/18 11:26:25;;;;;;;12.40;3.42;;;;;;;;;;7108371;27;19975;-77
2021/06/18 11:29:46;;;;;;;4.40;3.28;;;;;;;;;;7112958;27;20046;-80
2021/06/18 11:33:06;;;;;;;4.65;3.25;;;;;;;;;;7112875;27;20085;-77
2021/06/18 11:36:34;;;;;;;5.70;3.40;;;;;;;;;;7112520;27;20066;-78
2021/06/18 11:39:55;;;;;;;;;;;;;;;;;;7112162;27;20046;-78
2021/06/18 11:43:24;;;;;;;9.87;3.60;;;;;;;;;;7078171;27;19915;-82
2021/06/18 11:46:45;;;;;;;5.80;3.50;;;;;;;;;;7113011;27;20039;-80
2021/06/18 11:50:06;;;;;;;4.28;3.13;;;;;;;;;;7114033;27;20141;-80
2021/06/18 11:53:38;;;;;;;4.60;3.35;;;;;;;;;;7117501;27;20046;-80
2021/06/18 11:57:00;;;;;;;5.78;3.33;;;;;;;;;;7120621;27;20484;-81
2021/06/18 12:00:38;;;;;;;7.78;3.40;;;;;;;;;;7112388;27;20125;-81
2021/06/18 12:04:00;;;;;;;6.03;3.13;;;;;;;;;;7112154;27;20054;-79
2021/06/18 12:07:34;;;;;;;3.58;3.03;;;;;;;;;;7112016;27;20472;-82
2021/06/18 12:10:54;;;;;;;6.35;2.88;;;;;;;;;;7126186;27;20480;-80
2021/06/18 12:14:15;;;;;;;5.18;3.30;;;;;;;;;;7112059;27;20045;-81
2021/06/18 12:17:36;;;;;;;5.95;2.85;;;;;;;;;;7112240;27;20034;-80
2021/06/18 12:21:04;;;;;;;3.83;2.83;;;;;;;;;;7111502;27;20050;-81
2021/06/18 12:24:34;;;;;;;4.47;3.23;;;;;;;;;;7127380;27;20050;-81
2021/06/18 12:28:00;;;;;;;4.32;3.03;;;;;;;;;;7111239;27;20077;-80
2021/06/18 12:31:21;;;;;;;4.30;3.03;;;;;;;;;;7126439;27;20103;-80
2021/06/18 12:34:49;;;;;;;3.85;2.85;;;;;;;;;;7082803;27;20126;-81
2021/06/18 12:38:12;;;;;;;8.07;3.15;;;;;;;;;;7115818;27;20046;-80
2021/06/18 12:41:32;;;;;;;4.88;2.90;;;;;;;;;;7110391;27;20495;-81
2021/06/18 12:45:13;;;;;;;4.53;3.08;;;;;;;;;;7111164;27;20046;-78
2021/06/18 12:48:34;;;;;;;5.07;3.33;;;;;;;;;;7111234;27;20039;-77
2021/06/18 12:52:13;;;;;;;5.53;3.05;;;;;;;;;;7125333;27;20200;-79
2021/06/18 12:55:40;;;;;;;4.90;3.00;;;;;;;;;;7126196;27;20476;-78
2021/06/18 12:59:14;;;;;;;4.45;2.50;;;;;;;;;;7111077;27;20492;-78
2021/06/18 13:02:40;;;;;;;4.72;3.15;;;;;;;;;;7111129;27;20046;-79
2021/06/18 13:06:04;;;;;;;5.55;2.70;;;;;;;;;;7096670;27;20051;-80
2021/06/18 13:09:38;;;;;;;5.18;2.55;;;;;;;;;;7111341;27;20043;-80
2021/06/18 13:13:00;;;;;;;6.10;2.63;;;;;;;;;;7110853;27;20045;-80
2021/06/18 13:16:22;;;;;;;3.00;2.70;;;;;;;;;;7111013;27;20057;-80
2021/06/18 13:19:51;;;;;;;4.68;3.10;;;;;;;;;;7124877;27;20382;-79
2021/06/18 13:23:28;;;;;;;;;;;;;;;;;;7108690;27;20047;-79
2021/06/18 13:26:50;;;;;;;17.15;3.28;;;;;;;;;;7116037;22;20058;-87
2021/06/18 13:30:12;;;;;;;3.70;2.60;;;;;;;;;;7012060;28;20049;-88
2021/06/18 13:33:37;;;;;;;3.83;2.50;;;;;;;;;;6997006;28;20045;-88
2021/06/18 13:37:04;;;;;;;3.85;2.45;;;;;;;;;;7006385;28;20044;-86
2021/06/18 13:40:37;;;;;;;3.83;2.50;;;;;;;;;;6990254;28;20039;-88
2021/06/18 13:43:58;;;;;;;2.95;2.63;;;;;;;;;;7010785;28;20040;-86
2021/06/18 13:47:18;;;;;;;4.85;2.53;;;;;;;;;;7000492;28;20194;-86
2021/06/18 13:50:43;;;;;;;3.08;2.50;;;;;;;;;;7010330;28;20140;-85
2021/06/18 13:54:03;;;;;;;2.95;2.40;;;;;;;;;;7002736;28;20048;-86
2021/06/18 13:57:24;;;;;;;3.80;2.50;;;;;;;;;;7014980;28;20067;-88
2021/06/18 14:00:45;;;;;;;3.28;2.42;;;;;;;;;;6996445;28;20106;-83
2021/06/18 14:04:10;;;;;;;18.52;5.45;;;;;;;;;;6998665;28;20059;-91
2021/06/18 14:07:31;;;;;;;6.97;4.35;;;;;;;;;;7002731;28;20051;-91
2021/06/18 14:10:51;;;;;;;9.32;4.35;;;;;;;;;;6968413;28;20056;-86
2021/06/18 14:14:12;;;;;;;13.85;5.05;;;;;;;;;;6962244;28;20040;-90
2021/06/18 14:17:33;;;;;;;8.43;5.47;;;;;;;;;;6983798;28;20036;-88
2021/06/18 14:20:54;;;;;;;10.77;5.07;;;;;;;;;;6973049;28;20131;-88
2021/06/18 14:24:14;;;;;;;8.43;4.40;;;;;;;;;;7016814;28;20040;-87
2021/06/18 14:27:35;;;;;;;6.68;4.70;;;;;;;;;;7004386;28;20052;-88
2021/06/18 14:30:56;;;;;;;21.65;5.32;;;;;;;;;;7015783;28;20137;-88
2021/06/18 14:34:16;;;;;;;10.63;4.85;;;;;;;;;;7004937;28;20083;-88
2021/06/18 14:37:38;;;;;;;7.40;4.55;;;;;;;;;;7014548;28;20044;-87
2021/06/18 14:40:58;;;;;;;10.20;4.82;;;;;;;;;;7023684;28;20524;-88
2021/06/18 14:44:19;;;;;;;13.25;5.20;;;;;;;;;;7010384;28;20139;-87
2021/06/18 14:47:40;;;;;;;6.05;4.30;;;;;;;;;;7010272;28;20131;-88
2021/06/18 14:51:00;;;;;;;7.75;4.30;;;;;;;;;;7009409;28;20207;-86
2021/06/18 14:54:21;;;;;;;11.43;4.82;;;;;;;;;;6996182;28;20554;-86
2021/06/18 14:57:42;;;;;;;6.88;3.80;;;;;;;;;;6995687;28;20048;-86
2021/06/18 15:01:02;;;;;;;9.68;4.70;;;;;;;;;;7009726;28;20101;-86
2021/06/18 15:04:23;;;;;;;13.20;4.93;;;;;;;;;;7000471;28;20136;-85
2021/06/18 15:07:44;;;;;;;7.32;4.13;;;;;;;;;;6992129;28;20496;-87
2021/06/18 15:11:05;;;;;;;6.60;4.30;;;;;;;;;;7003868;28;20143;-88
2021/06/18 15:14:25;;;;;;;7.53;4.32;;;;;;;;;;7000475;28;20037;-88
2021/06/18 15:17:45;;;;;;;6.43;4.25;;;;;;;;;;7000398;28;20040;-88
2021/06/18 15:21:07;;;;;;;6.57;4.57;;;;;;;;;;7008634;28;20094;-88
2021/06/18 15:24:28;;;;;;;8.82;4.30;;;;;;;;;;7013837;28;20067;-89
2021/06/18 15:27:48;;;;;;;5.50;3.90;;;;;;;;;;7016767;28;20428;-89
2021/06/18 15:31:09;;;;;;;4.80;3.97;;;;;;;;;;6994121;28;20460;-87
2021/06/18 15:34:30;;;;;;;8.07;4.35;;;;;;;;;;6989553;28;20102;-88
2021/06/18 15:37:50;;;;;;;7.38;3.97;;;;;;;;;;7013980;28;20075;-87
2021/06/18 15:41:10;;;;;;;6.28;4.00;;;;;;;;;;7000184;28;20040;-88
2021/06/18 15:44:31;;;;;;;6.25;3.72;;;;;;;;;;6999557;28;20469;-86
2021/06/18 15:47:52;;;;;;;6.03;3.63;;;;;;;;;;6999468;28;20489;-86
2021/06/18 15:51:16;;;;;;;6.13;3.70;;;;;;;;;;6999233;28;20190;-86
2021/06/18 15:54:36;;;;;;;7.88;3.80;;;;;;;;;;6999340;28;20051;-87
2021/06/18 15:57:57;;;;;;;6.40;3.97;;;;;;;;;;6999096;28;20135;-87
2021/06/18 16:01:17;;;;;;;5.97;3.80;;;;;;;;;;6999290;28;20044;-86
2021/06/18 16:04:38;;;;;;;4.53;3.63;;;;;;;;;;6999204;28;20072;-86
2021/06/18 16:07:58;;;;;;;6.13;4.18;;;;;;;;;;6998797;28;20052;-87
2021/06/18 16:11:19;;;;;;;8.63;4.38;;;;;;;;;;6999196;28;20048;-86
2021/06/18 16:14:39;;;;;;;6.00;3.97;;;;;;;;;;6998336;28;20037;-87
2021/06/18 16:18:00;;;;;;;6.22;3.67;;;;;;;;;;6999314;28;20087;-86
2021/06/18 16:21:20;;;;;;;5.20;3.83;;;;;;;;;;6998960;28;20048;-86
2021/06/18 16:24:41;;;;;;;6.93;3.50;;;;;;;;;;7008748;28;20055;-86
2021/06/18 16:28:02;;;;;;;5.65;3.75;;;;;;;;;;7002468;28;20143;-87
2021/06/18 16:31:23;;;;;;;3.92;3.53;;;;;;;;;;6980877;28;20052;-87
2021/06/18 16:34:43;;;;;;;4.25;3.28;;;;;;;;;;7012532;28;20447;-86
2021/06/18 16:38:04;;;;;;;6.65;3.67;;;;;;;;;;7013151;28;20044;-86
2021/06/18 16:41:24;;;;;;;4.32;3.70;;;;;;;;;;6998483;28;20501;-87
2021/06/18 16:44:44;;;;;;;5.95;3.80;;;;;;;;;;6994674;28;20048;-86
2021/06/18 16:48:05;;;;;;;5.40;3.47;;;;;;;;;;6998514;28;20044;-86
2021/06/18 16:51:26;;;;;;;7.05;3.67;;;;;;;;;;6998346;28;20052;-86
2021/06/18 16:54:46;;;;;;;5.32;3.30;;;;;;;;;;7012780;28;20071;-86
2021/06/18 16:58:07;;;;;;;3.72;3.40;;;;;;;;;;6997886;28;20452;-86
2021/06/18 17:01:28;;;;;;;5.13;3.30;;;;;;;;;;6980741;28;20045;-86
2021/06/18 17:04:48;;;;;;;4.32;3.20;;;;;;;;;;7011560;28;20057;-86
2021/06/18 17:08:11;;;;;;;3.90;3.30;;;;;;;;;;6997742;28;20047;-87
2021/06/18 17:11:32;;;;;;;3.85;3.45;;;;;;;;;;7001317;28;20056;-85
2021/06/18 17:14:53;;;;;;;7.43;3.90;;;;;;;;;;7015363;28;20051;-86
2021/06/18 17:18:13;;;;;;;4.78;3.70;;;;;;;;;;6980418;28;20045;-86
2021/06/18 17:21:34;;;;;;;4.28;3.53;;;;;;;;;;6997791;28;20175;-85
2021/06/18 17:24:55;;;;;;;6.32;3.70;;;;;;;;;;7010052;28;20047;-86
2021/06/18 17:28:15;;;;;;;8.77;3.58;;;;;;;;;;6997705;28;20090;-86
2021/06/18 17:31:36;;;;;;;3.90;3.40;;;;;;;;;;7008141;28;20347;-86
2021/06/18 17:34:56;;;;;;;4.93;3.17;;;;;;;;;;7000203;28;20044;-86
2021/06/18 17:38:17;;;;;;;7.53;3.90;;;;;;;;;;7011264;28;20048;-86
2021/06/18 17:41:38;;;;;;;6.32;3.50;;;;;;;;;;6996575;28;20044;-86
2021/06/18 17:45:01;;;;;;;6.32;3.30;;;;;;;;;;6978891;28;20045;-85
2021/06/18 17:48:21;;;;;;;4.85;3.63;;;;;;;;;;7001892;28;20401;-85
2021/06/18 17:51:43;;;;;;;3.50;3.10;;;;;;;;;;7006105;28;20516;-86
2021/06/18 17:55:04;;;;;;;5.28;3.47;;;;;;;;;;6996944;28;20040;-86
2021/06/18 17:58:26;;;;;;;4.72;3.47;;;;;;;;;;6978792;28;20482;-86
2021/06/18 18:01:46;;;;;;;7.25;3.40;;;;;;;;;;6961076;28;20136;-85
2021/06/18 18:05:07;;;;;;;4.65;3.42;;;;;;;;;;6981215;28;20051;-86
2021/06/18 18:08:27;;;;;;;3.53;3.20;;;;;;;;;;7007923;28;20056;-85
2021/06/18 18:11:48;;;;;;;6.32;3.50;;;;;;;;;;6996243;28;20059;-85
2021/06/18 18:15:09;;;;;;;7.10;3.65;;;;;;;;;;7010957;28;20044;-85
2021/06/18 18:18:31;;;;;;;5.50;3.47;;;;;;;;;;6996295;28;20151;-85
2021/06/18 18:21:51;;;;;;;4.93;3.35;;;;;;;;;;6996489;28;20448;-85
2021/06/18 18:25:12;;;;;;;4.25;3.30;;;;;;;;;;6996048;28;20493;-85
2021/06/18 18:28:33;;;;;;;4.97;3.60;;;;;;;;;;7010237;28;20051;-86
2021/06/18 18:31:55;;;;;;;3.35;3.05;;;;;;;;;;6996075;28;20044;-86
2021/06/18 18:35:16;;;;;;;7.40;3.53;;;;;;;;;;6995952;28;20040;-86
2021/06/18 18:38:37;;;;;;;4.22;3.10;;;;;;;;;;7010237;28;20123;-86
2021/06/18 18:41:57;;;;;;;3.55;3.25;;;;;;;;;;7006140;28;20044;-86
2021/06/18 18:45:18;;;;;;;5.28;3.40;;;;;;;;;;7003376;28;20044;-86
2021/06/18 18:48:39;;;;;;;5.95;3.30;;;;;;;;;;7003654;28;20059;-86
2021/06/18 18:51:59;;;;;;;3.50;3.05;;;;;;;;;;7022810;28;20055;-86
2021/06/18 18:55:20;;;;;;;3.60;3.05;;;;;;;;;;7023549;28;20082;-86
2021/06/18 19:02:07;;;;;;;3.38;2.90;;;;;;;;;;7018709;28;20079;-85
2021/06/18 19:05:27;;;;;;;4.70;3.25;;;;;;;;;;7017536;28;20434;-86
2021/06/18 19:08:48;;;;;;;4.80;3.60;;;;;;;;;;7015577;28;20058;-86
2021/06/18 19:12:09;;;;;;;4.43;2.90;;;;;;;;;;7023217;28;20490;-86
2021/06/18 19:15:29;;;;;;;3.97;3.40;;;;;;;;;;7022530;28;20474;-86
2021/06/18 19:18:49;;;;;;;3.20;2.90;;;;;;;;;;7023493;28;20125;-86
2021/06/18 19:22:10;;;;;;;5.57;3.00;;;;;;;;;;7022849;28;20036;-86
2021/06/18 19:25:30;;;;;;;3.60;3.13;;;;;;;;;;7023508;28;20645;-86
2021/06/18 19:28:51;;;;;;;3.80;2.90;;;;;;;;;;7011369;28;20486;-86
2021/06/18 19:32:11;;;;;;;3.83;3.30;;;;;;;;;;7022228;28;20090;-86
2021/06/18 19:35:35;;;;;;;4.13;3.22;;;;;;;;;;7022958;28;20048;-86
2021/06/18 19:38:55;;;;;;;3.40;3.00;;;;;;;;;;7022366;28;20052;-86
2021/06/18 19:42:16;;;;;;;3.35;3.05;;;;;;;;;;7022836;28;20367;-86
2021/06/18 19:45:36;;;;;;;3.42;2.65;;;;;;;;;;7021963;28;20094;-87
2021/06/18 19:48:57;;;;;;;5.32;3.63;;;;;;;;;;7023678;28;20389;-85
2021/06/18 19:52:17;;;;;;;3.47;3.13;;;;;;;;;;7027029;28;20628;-86
2021/06/18 19:55:38;;;;;;;3.78;3.00;;;;;;;;;;7026674;28;20051;-86
2021/06/18 19:58:59;;;;;;;3.08;2.70;;;;;;;;;;7026585;28;20127;-86
2021/06/18 20:02:19;;;;;;;3.90;3.28;;;;;;;;;;7004410;28;20048;-87
2021/06/18 20:05:40;;;;;;;5.25;3.20;;;;;;;;;;6983610;28;20070;-88
2021/06/18 20:09:00;;;;;;;5.25;3.13;;;;;;;;;;7017709;28;20044;-86
2021/06/18 20:12:23;;;;;;;15.32;5.22;;;;;;;;;;7026040;28;20044;-87
2021/06/18 20:15:44;;;;;;;10.80;5.10;;;;;;;;;;7014097;28;20044;-87
2021/06/18 20:19:06;;;;;;;8.13;4.55;;;;;;;;;;7025126;28;20572;-87
2021/06/18 20:22:27;;;;;;;10.32;5.30;;;;;;;;;;7008919;28;20499;-89
2021/06/18 20:25:47;;;;;;;9.80;4.97;;;;;;;;;;7026569;28;20055;-86
2021/06/18 20:29:07;;;;;;;18.23;6.13;;;;;;;;;;7026677;28;20046;-86
2021/06/18 20:32:28;;;;;;;14.65;6.53;;;;;;;;;;6982758;28;20051;-85
2021/06/18 20:35:49;;;;;;;23.58;7.43;;;;;;;;;;7006263;28;20435;-86
2021/06/18 20:39:09;;;;;;;19.02;7.45;;;;;;;;;;7025525;28;20432;-86
2021/06/18 20:42:29;;;;;;;24.48;8.20;;;;;;;;;;7024139;28;20131;-86
2021/06/18 20:45:50;;;;;;;24.10;8.32;;;;;;;;;;7025205;28;20140;-86
2021/06/18 20:49:10;;;;;;;15.60;6.60;;;;;;;;;;7025417;28;20485;-86
2021/06/18 20:52:31;;;;;;;19.45;6.97;;;;;;;;;;7024995;28;20567;-86
2021/06/18 20:55:51;;;;;;;14.75;6.60;;;;;;;;;;7025274;28;20036;-86
2021/06/18 20:59:12;;;;;;;13.02;6.10;;;;;;;;;;7006525;28;20036;-86
2021/06/18 21:02:32;;;;;;;15.80;6.47;;;;;;;;;;7025528;28;20121;-86
2021/06/18 21:05:53;;;;;;;15.52;5.75;;;;;;;;;;7025973;28;20051;-86
2021/06/18 21:09:13;;;;;;;13.45;6.30;;;;;;;;;;7024850;28;20048;-87
2021/06/18 21:12:34;;;;;;;9.98;5.90;;;;;;;;;;7023295;28;20136;-86
2021/06/18 21:15:54;;;;;;;16.48;6.60;;;;;;;;;;7025485;28;20044;-86
2021/06/18 21:19:16;;;;;;;17.05;6.75;;;;;;;;;;7025564;28;20036;-86
2021/06/18 21:22:37;;;;;;;15.15;8.02;;;;;;;;;;7025215;28;20048;-86
2021/06/18 21:25:58;;;;;;;16.23;7.60;;;;;;;;;;6977783;28;20144;-86
2021/06/18 21:29:19;;;;;;;16.73;8.20;;;;;;;;;;7025160;28;20039;-87
2021/06/18 21:32:40;;;;;;;15.43;7.20;;;;;;;;;;7002336;28;20052;-86
2021/06/18 21:36:00;;;;;;;15.52;7.13;;;;;;;;;;6989986;28;20052;-85
2021/06/18 21:39:21;;;;;;;17.45;9.10;;;;;;;;;;7006558;28;20071;-86
2021/06/18 21:42:42;;;;;;;8.98;7.68;;;;;;;;;;6977497;28;20053;-86
2021/06/18 21:46:04;;;;;;;16.33;8.55;;;;;;;;;;6997421;28;20048;-86
2021/06/18 21:49:24;;;;;;;15.07;7.90;;;;;;;;;;6997009;28;20059;-87
2021/06/18 21:52:45;;;;;;;22.38;9.10;;;;;;;;;;7009095;28;20056;-86
2021/06/18 21:56:05;;;;;;;19.88;8.55;;;;;;;;;;6989502;28;20055;-86
2021/06/18 21:59:26;;;;;;;17.80;7.75;;;;;;;;;;7024671;28;20036;-85
2021/06/18 22:02:47;;;;;;;12.60;7.28;;;;;;;;;;7024726;28;20548;-86
2021/06/18 22:06:07;;;;;;;14.75;6.00;;;;;;;;;;7024736;28;20044;-87
2021/06/18 22:09:28;;;;;;;15.45;6.28;;;;;;;;;;7023701;28;20040;-87
2021/06/18 22:12:48;;;;;;;14.25;7.22;;;;;;;;;;7004493;28;20047;-89
2021/06/18 22:16:11;;;;;;;16.92;8.15;;;;;;;;;;7014316;28;20398;-89
2021/06/18 22:19:31;;;;;;;16.75;8.23;;;;;;;;;;7023531;28;20055;-88
2021/06/18 22:22:52;;;;;;;17.20;9.15;;;;;;;;;;7013735;28;20052;-88
2021/06/18 22:26:13;;;;;;;16.85;8.60;;;;;;;;;;6995766;28;20123;-88
2021/06/18 22:29:33;;;;;;;20.23;9.32;;;;;;;;;;7009483;28;20133;-88
2021/06/18 22:32:53;;;;;;;11.93;7.65;;;;;;;;;;7023238;28;20040;-88
2021/06/18 22:36:14;;;;;;;14.32;7.18;;;;;;;;;;7011555;28;20047;-88
2021/06/18 22:39:36;;;;;;;20.73;9.82;;;;;;;;;;6995450;28;20052;-89
2021/06/18 22:42:56;;;;;;;20.40;10.55;;;;;;;;;;6999178;28;20395;-85
2021/06/18 22:46:17;;;;;;;25.27;10.70;;;;;;;;;;7021835;28;20505;-85
2021/06/18 22:49:37;;;;;;;25.63;10.85;;;;;;;;;;7023196;28;20417;-84
2021/06/18 22:52:58;;;;;;;20.15;11.23;;;;;;;;;;7023240;28;20131;-85
2021/06/18 22:56:19;;;;;;;16.25;11.32;;;;;;;;;;7023749;28;20090;-84
2021/06/18 22:59:44;;;;;;;17.65;10.32;;;;;;;;;;7023291;28;20048;-85
2021/06/18 23:03:05;;;;;;;12.85;8.73;;;;;;;;;;7009731;28;20060;-84
2021/06/18 23:06:26;;;;;;;17.38;9.25;;;;;;;;;;7021547;28;20148;-84
2021/06/18 23:09:47;;;;;;;18.00;8.63;;;;;;;;;;7022095;28;20044;-84
2021/06/18 23:13:07;;;;;;;19.90;10.68;;;;;;;;;;7023027;28;20580;-84
2021/06/18 23:16:29;;;;;;;20.05;12.52;;;;;;;;;;7005204;28;20044;-84
2021/06/18 23:19:49;;;;;;;29.27;12.52;;;;;;;;;;7022715;28;20055;-86
2021/06/18 23:23:10;;;;;;;23.75;11.32;;;;;;;;;;7024185;28;20048;-85
2021/06/18 23:26:31;;;;;;;18.23;11.18;;;;;;;;;;7026459;28;20477;-85
2021/06/18 23:29:53;;;;;;;20.42;10.70;;;;;;;;;;7006228;28;20565;-85
2021/06/18 23:33:13;;;;;;;17.02;10.77;;;;;;;;;;7025639;28;20048;-85
2021/06/18 23:36:34;;;;;;;19.35;10.43;;;;;;;;;;7023839;28;20048;-82
2021/06/18 23:39:55;;;;;;;21.58;10.68;;;;;;;;;;6988300;28;20110;-83
2021/06/18 23:43:15;;;;;;;27.35;11.40;;;;;;;;;;6999801;28;20076;-84
2021/06/18 23:46:35;;;;;;;22.50;11.50;;;;;;;;;;7004387;28;20126;-84
2021/06/18 23:49:56;;;;;;;24.67;13.13;;;;;;;;;;7009369;28;20040;-84
2021/06/18 23:53:16;;;;;;;18.40;12.35;;;;;;;;;;6999539;28;20131;-84
2021/06/18 23:56:37;;;;;;;22.67;12.27;;;;;;;;;;6999354;28;20415;-84
2021/06/18 23:59:57;;;;;;;18.10;12.80;;;;;;;;;;6999738;28;20048;-84
